sensor_id;sensor_type;location;lat;lon;timestamp;P1;durP1;ratioP1;P2;durP2;ratioP2
8803;SDS011;4438;50.890;4.726;2023-04-21T00:00:52;14.10;;;12.70;;
8803;SDS011;4438;50.890;4.726;2023-04-21T00:03:18;15.03;;;13.63;;
8803;SDS011;4438;50.890;4.726;2023-04-21T00:05:46;14.67;;;13.20;;
8803;SDS011;4438;50.890;4.726;2023-04-21T00:08:12;14.03;;;12.73;;
8803;SDS011;4438;50.890;4.726;2023-04-21T00:10:39;13.73;;;12.43;;
8803;SDS011;4438;50.890;4.726;2023-04-21T00:13:05;14.67;;;13.27;;
8803;SDS011;4438;50.890;4.726;2023-04-21T00:15:31;16.37;;;14.87;;
8803;SDS011;4438;50.890;4.726;2023-04-21T00:17:57;16.33;;;14.73;;
8803;SDS011;4438;50.890;4.726;2023-04-21T00:20:23;15.50;;;14.00;;
8803;SDS011;4438;50.890;4.726;2023-04-21T00:22:53;16.73;;;15.17;;
8803;SDS011;4438;50.890;4.726;2023-04-21T00:25:19;16.50;;;14.90;;
8803;SDS011;4438;50.890;4.726;2023-04-21T00:27:45;18.13;;;16.33;;
8803;SDS011;4438;50.890;4.726;2023-04-21T00:30:11;17.40;;;15.70;;
8803;SDS011;4438;50.890;4.726;2023-04-21T00:32:37;18.33;;;16.43;;
8803;SDS011;4438;50.890;4.726;2023-04-21T00:35:03;18.93;;;17.03;;
8803;SDS011;4438;50.890;4.726;2023-04-21T00:37:29;20.47;;;18.47;;
8803;SDS011;4438;50.890;4.726;2023-04-21T00:39:56;20.33;;;18.30;;
8803;SDS011;4438;50.890;4.726;2023-04-21T00:42:22;18.23;;;16.53;;
8803;SDS011;4438;50.890;4.726;2023-04-21T00:44:49;19.87;;;17.93;;
8803;SDS011;4438;50.890;4.726;2023-04-21T00:47:16;21.10;;;18.97;;
8803;SDS011;4438;50.890;4.726;2023-04-21T00:49:42;22.07;;;19.77;;
8803;SDS011;4438;50.890;4.726;2023-04-21T00:52:08;22.03;;;19.83;;
8803;SDS011;4438;50.890;4.726;2023-04-21T00:54:35;21.70;;;19.50;;
8803;SDS011;4438;50.890;4.726;2023-04-21T00:57:01;23.00;;;20.60;;
8803;SDS011;4438;50.890;4.726;2023-04-21T00:59:28;23.77;;;21.37;;
8803;SDS011;4438;50.890;4.726;2023-04-21T01:01:54;23.43;;;21.03;;
8803;SDS011;4438;50.890;4.726;2023-04-21T01:04:20;23.97;;;21.57;;
8803;SDS011;4438;50.890;4.726;2023-04-21T01:06:47;23.97;;;21.50;;
8803;SDS011;4438;50.890;4.726;2023-04-21T01:09:13;24.27;;;21.73;;
8803;SDS011;4438;50.890;4.726;2023-04-21T01:11:39;23.60;;;21.20;;
8803;SDS011;4438;50.890;4.726;2023-04-21T01:14:05;25.03;;;21.90;;
8803;SDS011;4438;50.890;4.726;2023-04-21T01:16:31;26.00;;;23.33;;
8803;SDS011;4438;50.890;4.726;2023-04-21T01:19:01;26.10;;;23.37;;
8803;SDS011;4438;50.890;4.726;2023-04-21T01:21:37;27.43;;;24.63;;
8803;SDS011;4438;50.890;4.726;2023-04-21T01:24:04;26.23;;;23.57;;
8803;SDS011;4438;50.890;4.726;2023-04-21T01:26:30;26.30;;;23.60;;
8803;SDS011;4438;50.890;4.726;2023-04-21T01:28:57;26.37;;;23.57;;
8803;SDS011;4438;50.890;4.726;2023-04-21T01:31:23;26.00;;;23.30;;
8803;SDS011;4438;50.890;4.726;2023-04-21T01:33:51;25.97;;;23.33;;
8803;SDS011;4438;50.890;4.726;2023-04-21T01:36:17;25.10;;;22.53;;
8803;SDS011;4438;50.890;4.726;2023-04-21T01:38:43;25.67;;;23.03;;
8803;SDS011;4438;50.890;4.726;2023-04-21T01:41:09;26.37;;;23.67;;
8803;SDS011;4438;50.890;4.726;2023-04-21T01:43:35;25.73;;;22.97;;
8803;SDS011;4438;50.890;4.726;2023-04-21T01:46:05;26.17;;;23.57;;
8803;SDS011;4438;50.890;4.726;2023-04-21T01:48:32;26.27;;;23.57;;
8803;SDS011;4438;50.890;4.726;2023-04-21T01:50:59;26.73;;;24.03;;
8803;SDS011;4438;50.890;4.726;2023-04-21T01:53:25;25.30;;;22.60;;
8803;SDS011;4438;50.890;4.726;2023-04-21T01:55:51;27.17;;;24.27;;
8803;SDS011;4438;50.890;4.726;2023-04-21T01:58:17;27.80;;;25.00;;
8803;SDS011;4438;50.890;4.726;2023-04-21T02:00:43;26.73;;;23.93;;
8803;SDS011;4438;50.890;4.726;2023-04-21T02:03:09;26.70;;;23.90;;
8803;SDS011;4438;50.890;4.726;2023-04-21T02:05:35;27.40;;;24.57;;
8803;SDS011;4438;50.890;4.726;2023-04-21T02:08:01;27.97;;;25.07;;
8803;SDS011;4438;50.890;4.726;2023-04-21T02:10:27;28.77;;;25.67;;
8803;SDS011;4438;50.890;4.726;2023-04-21T02:12:53;28.33;;;25.27;;
8803;SDS011;4438;50.890;4.726;2023-04-21T02:15:19;28.03;;;25.13;;
8803;SDS011;4438;50.890;4.726;2023-04-21T02:17:45;28.37;;;25.37;;
8803;SDS011;4438;50.890;4.726;2023-04-21T02:20:11;28.63;;;25.63;;
8803;SDS011;4438;50.890;4.726;2023-04-21T02:22:38;29.67;;;26.53;;
8803;SDS011;4438;50.890;4.726;2023-04-21T02:25:04;30.13;;;26.53;;
8803;SDS011;4438;50.890;4.726;2023-04-21T02:27:31;30.03;;;26.80;;
8803;SDS011;4438;50.890;4.726;2023-04-21T02:29:57;29.33;;;26.23;;
8803;SDS011;4438;50.890;4.726;2023-04-21T02:32:23;28.43;;;25.43;;
8803;SDS011;4438;50.890;4.726;2023-04-21T02:34:49;30.17;;;26.97;;
8803;SDS011;4438;50.890;4.726;2023-04-21T02:37:15;31.50;;;28.17;;
8803;SDS011;4438;50.890;4.726;2023-04-21T02:39:41;31.63;;;26.80;;
8803;SDS011;4438;50.890;4.726;2023-04-21T02:42:07;29.63;;;26.53;;
8803;SDS011;4438;50.890;4.726;2023-04-21T02:44:36;29.67;;;26.50;;
8803;SDS011;4438;50.890;4.726;2023-04-21T02:47:02;30.70;;;27.40;;
8803;SDS011;4438;50.890;4.726;2023-04-21T02:49:28;31.37;;;28.03;;
8803;SDS011;4438;50.890;4.726;2023-04-21T02:51:56;30.10;;;26.90;;
8803;SDS011;4438;50.890;4.726;2023-04-21T02:54:22;30.40;;;27.10;;
8803;SDS011;4438;50.890;4.726;2023-04-21T02:56:48;30.80;;;27.50;;
8803;SDS011;4438;50.890;4.726;2023-04-21T02:59:14;30.97;;;27.10;;
8803;SDS011;4438;50.890;4.726;2023-04-21T03:01:41;31.13;;;27.83;;
8803;SDS011;4438;50.890;4.726;2023-04-21T03:04:07;32.07;;;28.57;;
8803;SDS011;4438;50.890;4.726;2023-04-21T03:06:33;30.83;;;27.50;;
8803;SDS011;4438;50.890;4.726;2023-04-21T03:08:59;31.90;;;28.13;;
8803;SDS011;4438;50.890;4.726;2023-04-21T03:11:25;31.70;;;28.40;;
8803;SDS011;4438;50.890;4.726;2023-04-21T03:13:51;31.03;;;27.73;;
8803;SDS011;4438;50.890;4.726;2023-04-21T03:16:17;31.53;;;28.23;;
8803;SDS011;4438;50.890;4.726;2023-04-21T03:18:43;34.33;;;29.50;;
8803;SDS011;4438;50.890;4.726;2023-04-21T03:21:10;31.63;;;28.23;;
8803;SDS011;4438;50.890;4.726;2023-04-21T03:23:36;31.20;;;27.80;;
8803;SDS011;4438;50.890;4.726;2023-04-21T03:26:08;31.90;;;28.43;;
8803;SDS011;4438;50.890;4.726;2023-04-21T03:28:35;31.47;;;28.07;;
8803;SDS011;4438;50.890;4.726;2023-04-21T03:31:01;30.37;;;27.17;;
8803;SDS011;4438;50.890;4.726;2023-04-21T03:33:27;32.03;;;27.93;;
8803;SDS011;4438;50.890;4.726;2023-04-21T03:35:53;31.17;;;27.87;;
8803;SDS011;4438;50.890;4.726;2023-04-21T03:38:19;29.23;;;26.03;;
8803;SDS011;4438;50.890;4.726;2023-04-21T03:40:45;30.83;;;27.27;;
8803;SDS011;4438;50.890;4.726;2023-04-21T03:43:11;31.30;;;27.30;;
8803;SDS011;4438;50.890;4.726;2023-04-21T03:45:37;31.07;;;27.67;;
8803;SDS011;4438;50.890;4.726;2023-04-21T03:48:03;30.07;;;26.87;;
8803;SDS011;4438;50.890;4.726;2023-04-21T03:50:29;29.00;;;25.83;;
8803;SDS011;4438;50.890;4.726;2023-04-21T03:52:55;28.47;;;25.47;;
8803;SDS011;4438;50.890;4.726;2023-04-21T03:55:21;29.90;;;26.60;;
8803;SDS011;4438;50.890;4.726;2023-04-21T03:57:47;28.80;;;25.70;;
8803;SDS011;4438;50.890;4.726;2023-04-21T04:00:14;29.47;;;26.27;;
8803;SDS011;4438;50.890;4.726;2023-04-21T04:02:40;27.90;;;24.83;;
8803;SDS011;4438;50.890;4.726;2023-04-21T04:05:06;31.00;;;25.60;;
8803;SDS011;4438;50.890;4.726;2023-04-21T04:07:32;29.43;;;26.17;;
8803;SDS011;4438;50.890;4.726;2023-04-21T04:09:59;28.90;;;25.80;;
8803;SDS011;4438;50.890;4.726;2023-04-21T04:12:25;29.17;;;26.00;;
8803;SDS011;4438;50.890;4.726;2023-04-21T04:14:51;29.97;;;26.33;;
8803;SDS011;4438;50.890;4.726;2023-04-21T04:17:17;27.87;;;24.87;;
8803;SDS011;4438;50.890;4.726;2023-04-21T04:19:43;30.07;;;26.80;;
8803;SDS011;4438;50.890;4.726;2023-04-21T04:22:09;27.67;;;24.70;;
8803;SDS011;4438;50.890;4.726;2023-04-21T04:24:35;29.83;;;26.57;;
8803;SDS011;4438;50.890;4.726;2023-04-21T04:27:01;27.23;;;24.37;;
8803;SDS011;4438;50.890;4.726;2023-04-21T04:29:28;28.43;;;25.33;;
8803;SDS011;4438;50.890;4.726;2023-04-21T04:31:54;27.87;;;24.27;;
8803;SDS011;4438;50.890;4.726;2023-04-21T04:34:22;27.80;;;24.73;;
8803;SDS011;4438;50.890;4.726;2023-04-21T04:36:48;27.33;;;24.53;;
8803;SDS011;4438;50.890;4.726;2023-04-21T04:39:15;27.67;;;24.67;;
8803;SDS011;4438;50.890;4.726;2023-04-21T04:41:41;27.20;;;24.30;;
8803;SDS011;4438;50.890;4.726;2023-04-21T04:44:07;26.77;;;23.87;;
8803;SDS011;4438;50.890;4.726;2023-04-21T04:46:35;27.73;;;24.73;;
8803;SDS011;4438;50.890;4.726;2023-04-21T04:49:01;28.67;;;25.57;;
8803;SDS011;4438;50.890;4.726;2023-04-21T04:51:27;27.03;;;24.13;;
8803;SDS011;4438;50.890;4.726;2023-04-21T04:53:54;29.07;;;25.20;;
8803;SDS011;4438;50.890;4.726;2023-04-21T04:56:20;27.63;;;24.73;;
8803;SDS011;4438;50.890;4.726;2023-04-21T04:58:46;27.30;;;24.37;;
8803;SDS011;4438;50.890;4.726;2023-04-21T05:01:12;26.97;;;24.00;;
8803;SDS011;4438;50.890;4.726;2023-04-21T05:03:38;27.33;;;24.47;;
8803;SDS011;4438;50.890;4.726;2023-04-21T05:06:04;26.77;;;23.90;;
8803;SDS011;4438;50.890;4.726;2023-04-21T05:08:31;27.00;;;24.10;;
8803;SDS011;4438;50.890;4.726;2023-04-21T05:10:57;26.07;;;23.33;;
8803;SDS011;4438;50.890;4.726;2023-04-21T05:13:23;26.50;;;23.70;;
8803;SDS011;4438;50.890;4.726;2023-04-21T05:15:55;27.67;;;24.67;;
8803;SDS011;4438;50.890;4.726;2023-04-21T05:18:21;28.83;;;25.73;;
8803;SDS011;4438;50.890;4.726;2023-04-21T05:20:48;28.83;;;25.43;;
8803;SDS011;4438;50.890;4.726;2023-04-21T05:23:14;29.37;;;25.90;;
8803;SDS011;4438;50.890;4.726;2023-04-21T05:25:40;30.97;;;26.20;;
8803;SDS011;4438;50.890;4.726;2023-04-21T05:28:06;28.60;;;25.43;;
8803;SDS011;4438;50.890;4.726;2023-04-21T05:30:32;33.80;;;27.13;;
8803;SDS011;4438;50.890;4.726;2023-04-21T05:32:58;32.07;;;26.83;;
8803;SDS011;4438;50.890;4.726;2023-04-21T05:35:24;32.40;;;27.67;;
8803;SDS011;4438;50.890;4.726;2023-04-21T05:37:50;31.67;;;26.87;;
8803;SDS011;4438;50.890;4.726;2023-04-21T05:40:16;30.57;;;26.07;;
8803;SDS011;4438;50.890;4.726;2023-04-21T05:42:42;31.97;;;26.97;;
8803;SDS011;4438;50.890;4.726;2023-04-21T05:45:08;31.13;;;27.00;;
8803;SDS011;4438;50.890;4.726;2023-04-21T05:47:35;30.00;;;26.50;;
8803;SDS011;4438;50.890;4.726;2023-04-21T05:50:02;31.77;;;26.73;;
8803;SDS011;4438;50.890;4.726;2023-04-21T05:52:28;30.97;;;26.30;;
8803;SDS011;4438;50.890;4.726;2023-04-21T05:54:54;30.20;;;25.80;;
8803;SDS011;4438;50.890;4.726;2023-04-21T05:57:20;29.60;;;26.07;;
8803;SDS011;4438;50.890;4.726;2023-04-21T05:59:46;29.30;;;25.33;;
8803;SDS011;4438;50.890;4.726;2023-04-21T06:02:12;31.37;;;26.10;;
8803;SDS011;4438;50.890;4.726;2023-04-21T06:04:38;37.40;;;28.10;;
8803;SDS011;4438;50.890;4.726;2023-04-21T06:07:05;31.07;;;26.47;;
8803;SDS011;4438;50.890;4.726;2023-04-21T06:09:32;31.60;;;26.70;;
8803;SDS011;4438;50.890;4.726;2023-04-21T06:11:58;33.50;;;27.37;;
8803;SDS011;4438;50.890;4.726;2023-04-21T06:14:24;31.77;;;26.87;;
8803;SDS011;4438;50.890;4.726;2023-04-21T06:16:50;33.33;;;27.40;;
8803;SDS011;4438;50.890;4.726;2023-04-21T06:19:16;31.07;;;26.43;;
8803;SDS011;4438;50.890;4.726;2023-04-21T06:21:42;30.93;;;25.73;;
8803;SDS011;4438;50.890;4.726;2023-04-21T06:24:08;31.00;;;26.80;;
8803;SDS011;4438;50.890;4.726;2023-04-21T06:26:34;27.57;;;23.90;;
8803;SDS011;4438;50.890;4.726;2023-04-21T06:29:00;30.33;;;25.83;;
8803;SDS011;4438;50.890;4.726;2023-04-21T06:31:26;28.90;;;25.60;;
8803;SDS011;4438;50.890;4.726;2023-04-21T06:33:52;28.87;;;24.73;;
8803;SDS011;4438;50.890;4.726;2023-04-21T06:36:19;28.20;;;25.00;;
8803;SDS011;4438;50.890;4.726;2023-04-21T06:38:47;28.20;;;24.17;;
8803;SDS011;4438;50.890;4.726;2023-04-21T06:41:13;28.73;;;24.60;;
8803;SDS011;4438;50.890;4.726;2023-04-21T06:43:39;27.97;;;24.67;;
8803;SDS011;4438;50.890;4.726;2023-04-21T06:46:05;27.03;;;23.30;;
8803;SDS011;4438;50.890;4.726;2023-04-21T06:48:31;29.00;;;24.47;;
8803;SDS011;4438;50.890;4.726;2023-04-21T06:50:57;32.87;;;25.70;;
8803;SDS011;4438;50.890;4.726;2023-04-21T06:53:24;27.27;;;23.53;;
8803;SDS011;4438;50.890;4.726;2023-04-21T06:55:51;27.10;;;22.77;;
8803;SDS011;4438;50.890;4.726;2023-04-21T06:58:17;24.33;;;21.43;;
8803;SDS011;4438;50.890;4.726;2023-04-21T07:00:43;23.20;;;20.80;;
8803;SDS011;4438;50.890;4.726;2023-04-21T07:03:10;27.10;;;21.00;;
8803;SDS011;4438;50.890;4.726;2023-04-21T07:05:36;29.00;;;20.33;;
8803;SDS011;4438;50.890;4.726;2023-04-21T07:08:02;24.00;;;20.00;;
8803;SDS011;4438;50.890;4.726;2023-04-21T07:10:28;24.13;;;19.97;;
8803;SDS011;4438;50.890;4.726;2023-04-21T07:12:56;22.60;;;19.97;;
8803;SDS011;4438;50.890;4.726;2023-04-21T07:15:22;20.77;;;18.37;;
8803;SDS011;4438;50.890;4.726;2023-04-21T07:17:48;21.00;;;18.73;;
8803;SDS011;4438;50.890;4.726;2023-04-21T07:20:14;29.90;;;19.77;;
8803;SDS011;4438;50.890;4.726;2023-04-21T07:22:42;21.20;;;17.90;;
8803;SDS011;4438;50.890;4.726;2023-04-21T07:25:08;21.07;;;17.33;;
8803;SDS011;4438;50.890;4.726;2023-04-21T07:27:35;20.33;;;18.13;;
8803;SDS011;4438;50.890;4.726;2023-04-21T07:30:02;19.73;;;17.63;;
8803;SDS011;4438;50.890;4.726;2023-04-21T07:32:28;20.00;;;17.40;;
8803;SDS011;4438;50.890;4.726;2023-04-21T07:34:54;18.17;;;16.23;;
8803;SDS011;4438;50.890;4.726;2023-04-21T07:37:20;19.63;;;17.53;;
8803;SDS011;4438;50.890;4.726;2023-04-21T07:39:46;18.13;;;16.17;;
8803;SDS011;4438;50.890;4.726;2023-04-21T07:42:12;18.50;;;16.50;;
8803;SDS011;4438;50.890;4.726;2023-04-21T07:44:39;18.77;;;16.77;;
8803;SDS011;4438;50.890;4.726;2023-04-21T07:47:05;17.70;;;15.83;;
8803;SDS011;4438;50.890;4.726;2023-04-21T07:49:31;19.00;;;17.00;;
8803;SDS011;4438;50.890;4.726;2023-04-21T07:51:57;16.97;;;15.17;;
8803;SDS011;4438;50.890;4.726;2023-04-21T07:54:23;17.13;;;15.33;;
8803;SDS011;4438;50.890;4.726;2023-04-21T07:56:49;17.70;;;15.83;;
8803;SDS011;4438;50.890;4.726;2023-04-21T07:59:15;17.00;;;15.20;;
8803;SDS011;4438;50.890;4.726;2023-04-21T08:01:41;25.10;;;15.33;;
8803;SDS011;4438;50.890;4.726;2023-04-21T08:04:07;15.80;;;14.10;;
8803;SDS011;4438;50.890;4.726;2023-04-21T08:06:33;17.00;;;14.77;;
8803;SDS011;4438;50.890;4.726;2023-04-21T08:08:59;15.97;;;14.27;;
8803;SDS011;4438;50.890;4.726;2023-04-21T08:11:25;15.97;;;14.37;;
8803;SDS011;4438;50.890;4.726;2023-04-21T08:13:52;15.17;;;13.67;;
8803;SDS011;4438;50.890;4.726;2023-04-21T08:16:19;15.27;;;13.77;;
8803;SDS011;4438;50.890;4.726;2023-04-21T08:18:45;18.03;;;14.10;;
8803;SDS011;4438;50.890;4.726;2023-04-21T08:21:11;15.40;;;13.83;;
8803;SDS011;4438;50.890;4.726;2023-04-21T08:23:38;16.60;;;14.87;;
8803;SDS011;4438;50.890;4.726;2023-04-21T08:26:04;21.00;;;14.63;;
8803;SDS011;4438;50.890;4.726;2023-04-21T08:28:30;14.93;;;13.43;;
8803;SDS011;4438;50.890;4.726;2023-04-21T08:30:56;15.50;;;13.93;;
8803;SDS011;4438;50.890;4.726;2023-04-21T08:33:22;15.40;;;13.90;;
8803;SDS011;4438;50.890;4.726;2023-04-21T08:35:48;14.43;;;12.67;;
8803;SDS011;4438;50.890;4.726;2023-04-21T08:38:14;15.13;;;13.63;;
8803;SDS011;4438;50.890;4.726;2023-04-21T08:40:40;18.87;;;13.40;;
8803;SDS011;4438;50.890;4.726;2023-04-21T08:43:07;19.07;;;14.63;;
8803;SDS011;4438;50.890;4.726;2023-04-21T08:45:33;14.90;;;13.30;;
8803;SDS011;4438;50.890;4.726;2023-04-21T08:48:00;14.70;;;13.20;;
8803;SDS011;4438;50.890;4.726;2023-04-21T08:50:27;14.60;;;13.07;;
8803;SDS011;4438;50.890;4.726;2023-04-21T08:52:54;13.97;;;12.57;;
8803;SDS011;4438;50.890;4.726;2023-04-21T08:55:29;13.87;;;12.47;;
8803;SDS011;4438;50.890;4.726;2023-04-21T08:57:56;15.60;;;14.00;;
8803;SDS011;4438;50.890;4.726;2023-04-21T09:00:22;14.50;;;13.00;;
8803;SDS011;4438;50.890;4.726;2023-04-21T09:02:55;15.07;;;13.50;;
8803;SDS011;4438;50.890;4.726;2023-04-21T09:05:22;15.70;;;14.20;;
8803;SDS011;4438;50.890;4.726;2023-04-21T09:07:49;14.57;;;13.07;;
8803;SDS011;4438;50.890;4.726;2023-04-21T09:10:20;15.23;;;13.67;;
8803;SDS011;4438;50.890;4.726;2023-04-21T09:12:50;15.30;;;13.70;;
8803;SDS011;4438;50.890;4.726;2023-04-21T09:15:20;14.13;;;12.73;;
8803;SDS011;4438;50.890;4.726;2023-04-21T09:17:46;14.30;;;12.90;;
8803;SDS011;4438;50.890;4.726;2023-04-21T09:20:20;13.60;;;12.30;;
8803;SDS011;4438;50.890;4.726;2023-04-21T09:22:47;14.40;;;12.90;;
8803;SDS011;4438;50.890;4.726;2023-04-21T09:25:23;13.27;;;11.97;;
8803;SDS011;4438;50.890;4.726;2023-04-21T09:27:49;13.60;;;12.20;;
8803;SDS011;4438;50.890;4.726;2023-04-21T09:30:18;14.77;;;13.10;;
8803;SDS011;4438;50.890;4.726;2023-04-21T09:32:44;13.77;;;12.30;;
8803;SDS011;4438;50.890;4.726;2023-04-21T09:35:11;13.50;;;12.10;;
8803;SDS011;4438;50.890;4.726;2023-04-21T09:37:37;13.00;;;11.73;;
8803;SDS011;4438;50.890;4.726;2023-04-21T09:40:04;12.73;;;11.53;;
8803;SDS011;4438;50.890;4.726;2023-04-21T09:42:31;12.97;;;11.73;;
8803;SDS011;4438;50.890;4.726;2023-04-21T09:44:57;12.53;;;11.33;;
8803;SDS011;4438;50.890;4.726;2023-04-21T09:47:23;13.23;;;11.90;;
8803;SDS011;4438;50.890;4.726;2023-04-21T09:49:53;14.50;;;11.93;;
8803;SDS011;4438;50.890;4.726;2023-04-21T09:52:20;13.03;;;11.73;;
8803;SDS011;4438;50.890;4.726;2023-04-21T09:54:50;14.20;;;12.90;;
8803;SDS011;4438;50.890;4.726;2023-04-21T09:57:20;13.03;;;11.73;;
8803;SDS011;4438;50.890;4.726;2023-04-21T09:59:50;13.70;;;12.37;;
8803;SDS011;4438;50.890;4.726;2023-04-21T10:02:18;13.50;;;12.17;;
8803;SDS011;4438;50.890;4.726;2023-04-21T10:04:44;13.60;;;12.17;;
8803;SDS011;4438;50.890;4.726;2023-04-21T10:07:10;13.10;;;11.80;;
8803;SDS011;4438;50.890;4.726;2023-04-21T10:09:47;12.30;;;11.20;;
8803;SDS011;4438;50.890;4.726;2023-04-21T10:12:15;14.37;;;12.97;;
8803;SDS011;4438;50.890;4.726;2023-04-21T10:14:42;13.73;;;12.33;;
8803;SDS011;4438;50.890;4.726;2023-04-21T10:17:09;13.97;;;12.67;;
8803;SDS011;4438;50.890;4.726;2023-04-21T10:19:36;13.40;;;12.10;;
8803;SDS011;4438;50.890;4.726;2023-04-21T10:22:08;13.87;;;12.57;;
8803;SDS011;4438;50.890;4.726;2023-04-21T10:24:35;14.47;;;13.00;;
8803;SDS011;4438;50.890;4.726;2023-04-21T10:27:02;13.30;;;12.00;;
8803;SDS011;4438;50.890;4.726;2023-04-21T10:29:28;13.37;;;12.07;;
8803;SDS011;4438;50.890;4.726;2023-04-21T10:31:55;12.50;;;11.30;;
8803;SDS011;4438;50.890;4.726;2023-04-21T10:34:54;12.37;;;11.17;;
8803;SDS011;4438;50.890;4.726;2023-04-21T10:37:15;13.67;;;10.43;;
8803;SDS011;4438;50.890;4.726;2023-04-21T10:39:45;10.87;;;9.80;;
8803;SDS011;4438;50.890;4.726;2023-04-21T10:44:41;13.33;;;11.93;;
8803;SDS011;4438;50.890;4.726;2023-04-21T10:47:07;12.50;;;10.80;;
8803;SDS011;4438;50.890;4.726;2023-04-21T10:49:37;13.57;;;12.27;;
8803;SDS011;4438;50.890;4.726;2023-04-21T10:52:05;14.20;;;12.80;;
8803;SDS011;4438;50.890;4.726;2023-04-21T10:54:41;13.43;;;12.03;;
8803;SDS011;4438;50.890;4.726;2023-04-21T10:57:10;12.67;;;11.33;;
8803;SDS011;4438;50.890;4.726;2023-04-21T10:59:36;13.73;;;11.57;;
8803;SDS011;4438;50.890;4.726;2023-04-21T11:02:06;11.90;;;10.70;;
8803;SDS011;4438;50.890;4.726;2023-04-21T11:04:33;11.87;;;10.67;;
8803;SDS011;4438;50.890;4.726;2023-04-21T11:07:11;11.70;;;10.10;;
8803;SDS011;4438;50.890;4.726;2023-04-21T11:09:38;15.30;;;11.73;;
8803;SDS011;4438;50.890;4.726;2023-04-21T11:12:12;14.77;;;11.03;;
8803;SDS011;4438;50.890;4.726;2023-04-21T11:14:39;11.47;;;10.37;;
8803;SDS011;4438;50.890;4.726;2023-04-21T11:17:12;10.77;;;9.70;;
8803;SDS011;4438;50.890;4.726;2023-04-21T11:19:39;11.03;;;9.97;;
8803;SDS011;4438;50.890;4.726;2023-04-21T11:22:05;10.50;;;9.60;;
8803;SDS011;4438;50.890;4.726;2023-04-21T11:24:32;10.70;;;9.70;;
8803;SDS011;4438;50.890;4.726;2023-04-21T11:26:58;11.30;;;10.23;;
8803;SDS011;4438;50.890;4.726;2023-04-21T11:29:26;11.80;;;10.57;;
8803;SDS011;4438;50.890;4.726;2023-04-21T11:31:53;11.60;;;10.50;;
8803;SDS011;4438;50.890;4.726;2023-04-21T11:34:20;12.70;;;11.50;;
8803;SDS011;4438;50.890;4.726;2023-04-21T11:36:49;11.97;;;10.87;;
8803;SDS011;4438;50.890;4.726;2023-04-21T11:39:15;12.17;;;10.97;;
8803;SDS011;4438;50.890;4.726;2023-04-21T11:41:45;10.20;;;9.27;;
8803;SDS011;4438;50.890;4.726;2023-04-21T11:44:11;12.00;;;10.90;;
8803;SDS011;4438;50.890;4.726;2023-04-21T11:46:44;13.80;;;9.97;;
8803;SDS011;4438;50.890;4.726;2023-04-21T11:49:11;11.23;;;10.20;;
8803;SDS011;4438;50.890;4.726;2023-04-21T11:54:03;10.50;;;9.60;;
8803;SDS011;4438;50.890;4.726;2023-04-21T11:56:37;10.03;;;8.97;;
8803;SDS011;4438;50.890;4.726;2023-04-21T12:01:33;9.33;;;8.37;;
8803;SDS011;4438;50.890;4.726;2023-04-21T12:04:01;11.20;;;10.20;;
8803;SDS011;4438;50.890;4.726;2023-04-21T12:06:27;10.93;;;9.97;;
8803;SDS011;4438;50.890;4.726;2023-04-21T12:09:00;10.17;;;9.17;;
8803;SDS011;4438;50.890;4.726;2023-04-21T12:11:30;11.50;;;10.40;;
8803;SDS011;4438;50.890;4.726;2023-04-21T12:13:56;11.30;;;10.20;;
8803;SDS011;4438;50.890;4.726;2023-04-21T12:16:23;10.23;;;9.33;;
8803;SDS011;4438;50.890;4.726;2023-04-21T12:18:51;11.83;;;8.83;;
8803;SDS011;4438;50.890;4.726;2023-04-21T12:21:17;10.03;;;9.00;;
8803;SDS011;4438;50.890;4.726;2023-04-21T12:23:43;11.00;;;9.77;;
8803;SDS011;4438;50.890;4.726;2023-04-21T12:26:10;12.00;;;10.37;;
8803;SDS011;4438;50.890;4.726;2023-04-21T12:28:39;9.93;;;8.93;;
8803;SDS011;4438;50.890;4.726;2023-04-21T12:31:05;9.53;;;8.73;;
8803;SDS011;4438;50.890;4.726;2023-04-21T12:33:31;8.27;;;7.50;;
8803;SDS011;4438;50.890;4.726;2023-04-21T12:35:57;9.47;;;8.63;;
8803;SDS011;4438;50.890;4.726;2023-04-21T12:38:24;9.70;;;8.80;;
8803;SDS011;4438;50.890;4.726;2023-04-21T12:40:50;8.13;;;7.33;;
8803;SDS011;4438;50.890;4.726;2023-04-21T12:43:16;8.60;;;7.77;;
8803;SDS011;4438;50.890;4.726;2023-04-21T12:45:42;9.60;;;8.70;;
8803;SDS011;4438;50.890;4.726;2023-04-21T12:48:08;9.53;;;8.53;;
8803;SDS011;4438;50.890;4.726;2023-04-21T12:50:34;11.17;;;8.57;;
8803;SDS011;4438;50.890;4.726;2023-04-21T12:53:00;12.30;;;10.97;;
8803;SDS011;4438;50.890;4.726;2023-04-21T12:55:26;10.27;;;9.37;;
8803;SDS011;4438;50.890;4.726;2023-04-21T12:57:52;8.27;;;7.50;;
8803;SDS011;4438;50.890;4.726;2023-04-21T13:00:19;9.40;;;7.70;;
8803;SDS011;4438;50.890;4.726;2023-04-21T13:02:45;7.77;;;7.07;;
8803;SDS011;4438;50.890;4.726;2023-04-21T13:05:11;8.63;;;7.30;;
8803;SDS011;4438;50.890;4.726;2023-04-21T13:07:38;10.40;;;7.13;;
8803;SDS011;4438;50.890;4.726;2023-04-21T13:10:05;7.70;;;7.00;;
8803;SDS011;4438;50.890;4.726;2023-04-21T13:12:32;8.10;;;7.30;;
8803;SDS011;4438;50.890;4.726;2023-04-21T13:14:58;8.03;;;7.27;;
8803;SDS011;4438;50.890;4.726;2023-04-21T13:17:24;9.37;;;7.80;;
8803;SDS011;4438;50.890;4.726;2023-04-21T13:19:50;7.73;;;7.00;;
8803;SDS011;4438;50.890;4.726;2023-04-21T13:22:16;7.70;;;7.00;;
8803;SDS011;4438;50.890;4.726;2023-04-21T13:24:42;7.40;;;6.60;;
8803;SDS011;4438;50.890;4.726;2023-04-21T13:27:08;7.90;;;7.20;;
8803;SDS011;4438;50.890;4.726;2023-04-21T13:29:34;8.70;;;7.93;;
8803;SDS011;4438;50.890;4.726;2023-04-21T13:32:01;7.63;;;6.90;;
8803;SDS011;4438;50.890;4.726;2023-04-21T13:34:28;6.40;;;5.80;;
8803;SDS011;4438;50.890;4.726;2023-04-21T13:36:54;7.63;;;7.00;;
8803;SDS011;4438;50.890;4.726;2023-04-21T13:39:20;8.20;;;6.23;;
8803;SDS011;4438;50.890;4.726;2023-04-21T13:41:46;7.30;;;6.60;;
8803;SDS011;4438;50.890;4.726;2023-04-21T13:44:12;6.80;;;6.20;;
8803;SDS011;4438;50.890;4.726;2023-04-21T13:46:38;6.50;;;5.90;;
8803;SDS011;4438;50.890;4.726;2023-04-21T13:49:05;5.77;;;5.20;;
8803;SDS011;4438;50.890;4.726;2023-04-21T13:51:31;8.17;;;7.37;;
8803;SDS011;4438;50.890;4.726;2023-04-21T13:53:57;9.33;;;7.50;;
8803;SDS011;4438;50.890;4.726;2023-04-21T13:56:23;7.00;;;6.40;;
8803;SDS011;4438;50.890;4.726;2023-04-21T13:58:49;7.07;;;6.37;;
8803;SDS011;4438;50.890;4.726;2023-04-21T14:01:15;7.83;;;6.13;;
8803;SDS011;4438;50.890;4.726;2023-04-21T14:03:41;8.43;;;6.70;;
8803;SDS011;4438;50.890;4.726;2023-04-21T14:06:08;6.80;;;6.10;;
8803;SDS011;4438;50.890;4.726;2023-04-21T14:08:34;7.13;;;6.43;;
8803;SDS011;4438;50.890;4.726;2023-04-21T14:11:00;6.47;;;5.87;;
8803;SDS011;4438;50.890;4.726;2023-04-21T14:13:26;5.93;;;5.33;;
8803;SDS011;4438;50.890;4.726;2023-04-21T14:15:53;6.40;;;5.83;;
8803;SDS011;4438;50.890;4.726;2023-04-21T14:18:19;8.43;;;6.67;;
8803;SDS011;4438;50.890;4.726;2023-04-21T14:20:45;6.33;;;5.77;;
8803;SDS011;4438;50.890;4.726;2023-04-21T14:23:11;6.13;;;5.63;;
8803;SDS011;4438;50.890;4.726;2023-04-21T14:25:37;7.27;;;6.20;;
8803;SDS011;4438;50.890;4.726;2023-04-21T14:28:04;6.40;;;5.90;;
8803;SDS011;4438;50.890;4.726;2023-04-21T14:30:32;6.93;;;5.93;;
8803;SDS011;4438;50.890;4.726;2023-04-21T14:33:00;7.37;;;5.53;;
8803;SDS011;4438;50.890;4.726;2023-04-21T14:35:26;7.07;;;6.20;;
8803;SDS011;4438;50.890;4.726;2023-04-21T14:37:52;7.27;;;6.57;;
8803;SDS011;4438;50.890;4.726;2023-04-21T14:40:18;8.93;;;6.47;;
8803;SDS011;4438;50.890;4.726;2023-04-21T14:42:44;7.10;;;6.40;;
8803;SDS011;4438;50.890;4.726;2023-04-21T14:45:10;9.30;;;6.37;;
8803;SDS011;4438;50.890;4.726;2023-04-21T14:47:36;6.60;;;5.60;;
8803;SDS011;4438;50.890;4.726;2023-04-21T14:50:04;7.70;;;6.80;;
8803;SDS011;4438;50.890;4.726;2023-04-21T14:52:30;6.23;;;5.60;;
8803;SDS011;4438;50.890;4.726;2023-04-21T14:54:56;7.17;;;5.83;;
8803;SDS011;4438;50.890;4.726;2023-04-21T14:57:24;5.30;;;4.73;;